sensor_id;sensor_type;location;lat;lon;timestamp;pressure;altitude;pressure_sealevel;temperature;humidity
73316;BME280;61545;53.726;-0.444;2023-04-05T00:03:33;1018.5;;;6.3;100.0
73316;BME280;61545;53.726;-0.444;2023-04-05T00:08:33;1018.4;;;6.3;100.0
73316;BME280;61545;53.726;-0.444;2023-04-05T00:13:33;1018.4;;;6.2;100.0
73316;BME280;61545;53.726;-0.444;2023-04-05T00:18:33;1018.4;;;6.1;100.0
73316;BME280;61545;53.726;-0.444;2023-04-05T00:23:33;1018.3;;;6.2;100.0
73316;BME280;61545;53.726;-0.444;2023-04-05T00:28:33;1018.2;;;6.1;100.0
73316;BME280;61545;53.726;-0.444;2023-04-05T00:33:33;1018.2;;;6.2;100.0
73316;BME280;61545;53.726;-0.444;2023-04-05T00:38:33;1018.2;;;6.0;100.0
73316;BME280;61545;53.726;-0.444;2023-04-05T00:43:33;1018.1;;;6.0;100.0
73316;BME280;61545;53.726;-0.444;2023-04-05T00:48:33;1018.1;;;6.0;100.0
73316;BME280;61545;53.726;-0.444;2023-04-05T00:53:33;1018.0;;;5.8;100.0
73316;BME280;61545;53.726;-0.444;2023-04-05T00:58:33;1018.0;;;6.0;100.0
73316;BME280;61545;53.726;-0.444;2023-04-05T01:03:34;1018.0;;;5.9;100.0
73316;BME280;61545;53.726;-0.444;2023-04-05T01:08:38;1017.9;;;5.8;100.0
73316;BME280;61545;53.726;-0.444;2023-04-05T01:13:33;1017.8;;;5.8;100.0
73316;BME280;61545;53.726;-0.444;2023-04-05T01:18:33;1017.7;;;5.6;100.0
73316;BME280;61545;53.726;-0.444;2023-04-05T01:23:36;1017.6;;;5.8;100.0
73316;BME280;61545;53.726;-0.444;2023-04-05T01:28:43;1017.7;;;5.7;100.0
73316;BME280;61545;53.726;-0.444;2023-04-05T01:33:34;1017.7;;;5.5;100.0
73316;BME280;61545;53.726;-0.444;2023-04-05T01:38:33;1017.6;;;5.5;100.0
73316;BME280;61545;53.726;-0.444;2023-04-05T01:43:33;1017.6;;;5.4;100.0
73316;BME280;61545;53.726;-0.444;2023-04-05T01:48:33;1017.5;;;5.5;100.0
73316;BME280;61545;53.726;-0.444;2023-04-05T01:53:33;1017.5;;;5.3;100.0
73316;BME280;61545;53.726;-0.444;2023-04-05T01:58:33;1017.4;;;5.1;100.0
73316;BME280;61545;53.726;-0.444;2023-04-05T02:03:33;1017.4;;;5.3;100.0
73316;BME280;61545;53.726;-0.444;2023-04-05T02:08:33;1017.4;;;5.2;100.0
73316;BME280;61545;53.726;-0.444;2023-04-05T02:13:33;1017.3;;;5.3;100.0
73316;BME280;61545;53.726;-0.444;2023-04-05T02:18:33;1017.2;;;5.2;100.0
73316;BME280;61545;53.726;-0.444;2023-04-05T02:23:33;1017.2;;;5.2;100.0
73316;BME280;61545;53.726;-0.444;2023-04-05T02:28:33;1017.2;;;5.2;100.0
73316;BME280;61545;53.726;-0.444;2023-04-05T02:33:33;1017.1;;;5.2;100.0
73316;BME280;61545;53.726;-0.444;2023-04-05T02:38:33;1017.2;;;5.2;100.0
73316;BME280;61545;53.726;-0.444;2023-04-05T02:43:33;1017.1;;;5.2;100.0
73316;BME280;61545;53.726;-0.444;2023-04-05T02:48:33;1017.0;;;5.1;100.0
73316;BME280;61545;53.726;-0.444;2023-04-05T02:53:33;1016.9;;;5.1;100.0
73316;BME280;61545;53.726;-0.444;2023-04-05T02:58:33;1016.9;;;5.0;100.0
73316;BME280;61545;53.726;-0.444;2023-04-05T03:03:33;1016.8;;;5.0;100.0
73316;BME280;61545;53.726;-0.444;2023-04-05T03:08:33;1016.8;;;5.0;100.0
73316;BME280;61545;53.726;-0.444;2023-04-05T03:13:33;1016.7;;;5.1;100.0
73316;BME280;61545;53.726;-0.444;2023-04-05T03:18:33;1016.6;;;5.2;100.0
73316;BME280;61545;53.726;-0.444;2023-04-05T03:23:33;1016.6;;;5.3;100.0
73316;BME280;61545;53.726;-0.444;2023-04-05T03:28:33;1016.5;;;5.0;100.0
73316;BME280;61545;53.726;-0.444;2023-04-05T03:33:33;1016.5;;;5.1;100.0
73316;BME280;61545;53.726;-0.444;2023-04-05T03:38:33;1016.5;;;5.0;100.0
73316;BME280;61545;53.726;-0.444;2023-04-05T03:43:33;1016.6;;;5.1;100.0
73316;BME280;61545;53.726;-0.444;2023-04-05T03:48:33;1016.5;;;5.0;100.0
73316;BME280;61545;53.726;-0.444;2023-04-05T03:53:33;1016.5;;;5.1;100.0
73316;BME280;61545;53.726;-0.444;2023-04-05T03:58:33;1016.4;;;4.9;100.0
73316;BME280;61545;53.726;-0.444;2023-04-05T04:03:33;1016.5;;;5.1;100.0
73316;BME280;61545;53.726;-0.444;2023-04-05T04:08:33;1016.4;;;5.2;100.0
73316;BME280;61545;53.726;-0.444;2023-04-05T04:13:33;1016.4;;;5.0;100.0
73316;BME280;61545;53.726;-0.444;2023-04-05T04:18:33;1016.4;;;5.0;100.0
73316;BME280;61545;53.726;-0.444;2023-04-05T04:23:33;1016.4;;;4.9;100.0
73316;BME280;61545;53.726;-0.444;2023-04-05T04:28:33;1016.4;;;4.8;100.0
73316;BME280;61545;53.726;-0.444;2023-04-05T04:33:33;1016.4;;;4.8;100.0
73316;BME280;61545;53.726;-0.444;2023-04-05T04:38:33;1016.4;;;4.7;100.0
73316;BME280;61545;53.726;-0.444;2023-04-05T04:43:33;1016.4;;;4.7;100.0
73316;BME280;61545;53.726;-0.444;2023-04-05T04:48:33;1016.3;;;4.8;100.0
73316;BME280;61545;53.726;-0.444;2023-04-05T04:53:33;1016.2;;;4.7;100.0
73316;BME280;61545;53.726;-0.444;2023-04-05T04:58:33;1016.3;;;4.6;100.0
73316;BME280;61545;53.726;-0.444;2023-04-05T05:03:33;1016.2;;;4.5;100.0
73316;BME280;61545;53.726;-0.444;2023-04-05T05:08:33;1016.3;;;4.5;100.0
73316;BME280;61545;53.726;-0.444;2023-04-05T05:13:33;1016.2;;;4.5;100.0
73316;BME280;61545;53.726;-0.444;2023-04-05T05:18:33;1016.3;;;4.5;100.0
73316;BME280;61545;53.726;-0.444;2023-04-05T05:23:33;1016.3;;;4.3;100.0
73316;BME280;61545;53.726;-0.444;2023-04-05T05:28:33;1016.3;;;4.3;100.0
73316;BME280;61545;53.726;-0.444;2023-04-05T05:33:33;1016.3;;;4.3;100.0
73316;BME280;61545;53.726;-0.444;2023-04-05T05:38:33;1016.2;;;4.3;100.0
73316;BME280;61545;53.726;-0.444;2023-04-05T05:43:33;1016.2;;;4.3;100.0
73316;BME280;61545;53.726;-0.444;2023-04-05T05:48:33;1016.1;;;4.3;100.0
73316;BME280;61545;53.726;-0.444;2023-04-05T05:53:33;1016.2;;;4.2;100.0
73316;BME280;61545;53.726;-0.444;2023-04-05T05:58:33;1016.1;;;4.3;100.0
73316;BME280;61545;53.726;-0.444;2023-04-05T06:03:33;1016.1;;;4.3;100.0
73316;BME280;61545;53.726;-0.444;2023-04-05T06:08:33;1016.1;;;4.5;100.0
73316;BME280;61545;53.726;-0.444;2023-04-05T06:13:33;1016.0;;;4.5;100.0
73316;BME280;61545;53.726;-0.444;2023-04-05T06:18:33;1016.1;;;4.8;100.0
73316;BME280;61545;53.726;-0.444;2023-04-05T06:23:33;1016.0;;;5.2;100.0
73316;BME280;61545;53.726;-0.444;2023-04-05T06:28:33;1016.1;;;5.3;100.0
73316;BME280;61545;53.726;-0.444;2023-04-05T06:33:33;1015.9;;;5.5;100.0
73316;BME280;61545;53.726;-0.444;2023-04-05T06:38:33;1015.9;;;5.7;100.0
73316;BME280;61545;53.726;-0.444;2023-04-05T06:43:33;1016.0;;;5.7;100.0
73316;BME280;61545;53.726;-0.444;2023-04-05T06:48:33;1016.0;;;5.7;100.0
73316;BME280;61545;53.726;-0.444;2023-04-05T06:53:33;1015.9;;;5.8;100.0
73316;BME280;61545;53.726;-0.444;2023-04-05T06:58:33;1016.0;;;6.1;100.0
73316;BME280;61545;53.726;-0.444;2023-04-05T07:03:33;1016.0;;;6.3;100.0
73316;BME280;61545;53.726;-0.444;2023-04-05T07:08:33;1016.0;;;6.5;100.0
73316;BME280;61545;53.726;-0.444;2023-04-05T07:13:33;1015.9;;;7.3;100.0
73316;BME280;61545;53.726;-0.444;2023-04-05T07:18:33;1015.9;;;8.7;100.0
73316;BME280;61545;53.726;-0.444;2023-04-05T07:23:33;1015.8;;;9.0;100.0
73316;BME280;61545;53.726;-0.444;2023-04-05T07:28:33;1015.8;;;8.4;100.0
73316;BME280;61545;53.726;-0.444;2023-04-05T07:33:33;1015.7;;;7.6;100.0
73316;BME280;61545;53.726;-0.444;2023-04-05T07:38:33;1015.7;;;7.4;100.0
73316;BME280;61545;53.726;-0.444;2023-04-05T07:43:33;1015.6;;;7.4;100.0
73316;BME280;61545;53.726;-0.444;2023-04-05T07:48:33;1015.7;;;7.2;100.0
73316;BME280;61545;53.726;-0.444;2023-04-05T07:53:33;1015.7;;;7.2;100.0
73316;BME280;61545;53.726;-0.444;2023-04-05T07:58:33;1015.7;;;7.2;100.0
73316;BME280;61545;53.726;-0.444;2023-04-05T08:03:33;1015.7;;;7.3;100.0
73316;BME280;61545;53.726;-0.444;2023-04-05T08:08:33;1015.7;;;7.2;100.0
73316;BME280;61545;53.726;-0.444;2023-04-05T08:13:33;1015.7;;;7.3;100.0
73316;BME280;61545;53.726;-0.444;2023-04-05T08:18:33;1015.7;;;7.5;100.0
73316;BME280;61545;53.726;-0.444;2023-04-05T08:23:33;1015.7;;;7.7;100.0
73316;BME280;61545;53.726;-0.444;2023-04-05T08:28:33;1015.7;;;7.9;100.0
73316;BME280;61545;53.726;-0.444;2023-04-05T08:33:33;1015.6;;;7.8;100.0
73316;BME280;61545;53.726;-0.444;2023-04-05T08:38:33;1015.6;;;7.7;100.0
73316;BME280;61545;53.726;-0.444;2023-04-05T08:43:39;1015.6;;;7.7;100.0
73316;BME280;61545;53.726;-0.444;2023-04-05T08:48:33;1015.6;;;7.6;100.0
73316;BME280;61545;53.726;-0.444;2023-04-05T08:53:33;1015.5;;;7.8;100.0
73316;BME280;61545;53.726;-0.444;2023-04-05T08:58:33;1015.5;;;7.7;100.0
73316;BME280;61545;53.726;-0.444;2023-04-05T09:03:34;1015.5;;;7.9;100.0
73316;BME280;61545;53.726;-0.444;2023-04-05T09:08:33;1015.5;;;7.9;100.0
73316;BME280;61545;53.726;-0.444;2023-04-05T09:13:33;1015.4;;;8.4;100.0
73316;BME280;61545;53.726;-0.444;2023-04-05T09:18:33;1015.4;;;8.5;100.0
73316;BME280;61545;53.726;-0.444;2023-04-05T09:23:33;1015.4;;;8.4;100.0
73316;BME280;61545;53.726;-0.444;2023-04-05T09:28:40;1015.3;;;8.8;100.0
73316;BME280;61545;53.726;-0.444;2023-04-05T09:33:33;1015.3;;;8.9;100.0
73316;BME280;61545;53.726;-0.444;2023-04-05T09:38:41;1015.2;;;8.7;100.0
73316;BME280;61545;53.726;-0.444;2023-04-05T09:43:35;1015.2;;;9.0;100.0
73316;BME280;61545;53.726;-0.444;2023-04-05T09:48:45;1015.1;;;9.4;100.0
73316;BME280;61545;53.726;-0.444;2023-04-05T09:53:33;1015.1;;;9.2;100.0
73316;BME280;61545;53.726;-0.444;2023-04-05T09:58:33;1015.1;;;9.5;100.0
73316;BME280;61545;53.726;-0.444;2023-04-05T10:03:35;1015.0;;;9.5;100.0
73316;BME280;61545;53.726;-0.444;2023-04-05T10:08:33;1015.0;;;9.2;100.0
73316;BME280;61545;53.726;-0.444;2023-04-05T10:13:33;1015.0;;;9.3;100.0
73316;BME280;61545;53.726;-0.444;2023-04-05T10:18:39;1014.9;;;9.4;100.0
73316;BME280;61545;53.726;-0.444;2023-04-05T10:23:33;1014.9;;;9.4;100.0
73316;BME280;61545;53.726;-0.444;2023-04-05T10:28:34;1014.9;;;9.5;100.0
73316;BME280;61545;53.726;-0.444;2023-04-05T10:33:34;1014.9;;;9.6;100.0
73316;BME280;61545;53.726;-0.444;2023-04-05T10:38:35;1014.9;;;9.7;100.0
73316;BME280;61545;53.726;-0.444;2023-04-05T10:43:33;1014.9;;;9.5;100.0
73316;BME280;61545;53.726;-0.444;2023-04-05T10:48:36;1014.8;;;9.9;100.0
73316;BME280;61545;53.726;-0.444;2023-04-05T10:53:33;1014.8;;;9.7;100.0
73316;BME280;61545;53.726;-0.444;2023-04-05T10:58:34;1014.8;;;10.0;100.0
73316;BME280;61545;53.726;-0.444;2023-04-05T11:03:46;1014.7;;;10.1;100.0
73316;BME280;61545;53.726;-0.444;2023-04-05T11:08:33;1014.7;;;10.1;100.0
73316;BME280;61545;53.726;-0.444;2023-04-05T11:13:46;1014.7;;;10.1;100.0
73316;BME280;61545;53.726;-0.444;2023-04-05T11:18:33;1014.6;;;10.5;100.0
73316;BME280;61545;53.726;-0.444;2023-04-05T11:23:34;1014.6;;;10.7;100.0
73316;BME280;61545;53.726;-0.444;2023-04-05T11:28:34;1014.6;;;10.6;100.0
73316;BME280;61545;53.726;-0.444;2023-04-05T11:34:05;1014.5;;;10.7;100.0
73316;BME280;61545;53.726;-0.444;2023-04-05T11:38:33;1014.5;;;10.4;100.0
73316;BME280;61545;53.726;-0.444;2023-04-05T11:43:33;1014.4;;;10.1;100.0
73316;BME280;61545;53.726;-0.444;2023-04-05T11:48:33;1014.4;;;10.0;100.0
73316;BME280;61545;53.726;-0.444;2023-04-05T11:53:33;1014.4;;;10.2;100.0
73316;BME280;61545;53.726;-0.444;2023-04-05T11:58:33;1014.4;;;10.1;100.0
73316;BME280;61545;53.726;-0.444;2023-04-05T12:03:33;1014.3;;;10.2;100.0
73316;BME280;61545;53.726;-0.444;2023-04-05T12:08:37;1014.2;;;10.5;100.0
73316;BME280;61545;53.726;-0.444;2023-04-05T12:13:33;1014.3;;;10.5;100.0
73316;BME280;61545;53.726;-0.444;2023-04-05T12:18:34;1014.2;;;10.5;100.0
73316;BME280;61545;53.726;-0.444;2023-04-05T12:23:33;1014.2;;;10.4;100.0
73316;BME280;61545;53.726;-0.444;2023-04-05T12:28:49;1014.2;;;10.1;100.0
73316;BME280;61545;53.726;-0.444;2023-04-05T12:33:33;1014.2;;;10.1;100.0
73316;BME280;61545;53.726;-0.444;2023-04-05T12:38:35;1014.1;;;10.4;100.0
73316;BME280;61545;53.726;-0.444;2023-04-05T12:43:37;1014.1;;;10.2;100.0
73316;BME280;61545;53.726;-0.444;2023-04-05T12:48:33;1014.0;;;10.0;100.0
73316;BME280;61545;53.726;-0.444;2023-04-05T12:53:33;1014.0;;;10.0;100.0
73316;BME280;61545;53.726;-0.444;2023-04-05T12:58:34;1014.0;;;9.9;100.0
73316;BME280;61545;53.726;-0.444;2023-04-05T13:03:33;1014.0;;;9.7;100.0
73316;BME280;61545;53.726;-0.444;2023-04-05T13:08:33;1013.9;;;9.7;100.0
73316;BME280;61545;53.726;-0.444;2023-04-05T13:13:33;1013.9;;;9.9;100.0
73316;BME280;61545;53.726;-0.444;2023-04-05T13:18:33;1013.8;;;10.2;100.0
73316;BME280;61545;53.726;-0.444;2023-04-05T13:23:33;1013.7;;;10.1;100.0
73316;BME280;61545;53.726;-0.444;2023-04-05T13:28:33;1013.7;;;unknown;100.0
73316;BME280;61545;53.726;-0.444;2023-04-05T13:33:33;1013.7;;;10.0;100.0
73316;BME280;61545;53.726;-0.444;2023-04-05T13:38:33;1013.7;;;9.9;100.0
73316;BME280;61545;53.726;-0.444;2023-04-05T13:43:33;1013.6;;;9.8;100.0
73316;BME280;61545;53.726;-0.444;2023-04-05T13:48:33;1013.6;;;9.6;100.0
73316;BME280;61545;53.726;-0.444;2023-04-05T13:53:33;1013.7;;;9.6;100.0
73316;BME280;61545;53.726;-0.444;2023-04-05T13:58:33;1013.6;;;9.8;100.0
73316;BME280;61545;53.726;-0.444;2023-04-05T14:03:33;1013.5;;;9.7;100.0
73316;BME280;61545;53.726;-0.444;2023-04-05T14:08:33;1013.5;;;9.5;100.0
73316;BME280;61545;53.726;-0.444;2023-04-05T14:13:33;1013.5;;;9.2;100.0
73316;BME280;61545;53.726;-0.444;2023-04-05T14:18:33;1013.5;;;9.4;100.0
73316;BME280;61545;53.726;-0.444;2023-04-05T14:23:33;1013.3;;;9.4;100.0
73316;BME280;61545;53.726;-0.444;2023-04-05T14:28:33;1013.3;;;9.5;100.0
73316;BME280;61545;53.726;-0.444;2023-04-05T14:33:33;1013.2;;;9.6;100.0
73316;BME280;61545;53.726;-0.444;2023-04-05T14:38:33;1013.1;;;9.4;100.0
73316;BME280;61545;53.726;-0.444;2023-04-05T14:43:33;1013.1;;;9.4;100.0
73316;BME280;61545;53.726;-0.444;2023-04-05T14:48:33;1013.0;;;9.5;100.0
73316;BME280;61545;53.726;-0.444;2023-04-05T14:53:33;1012.9;;;9.5;100.0
73316;BME280;61545;53.726;-0.444;2023-04-05T14:58:33;1012.8;;;9.5;100.0
73316;BME280;61545;53.726;-0.444;2023-04-05T15:03:33;1012.8;;;9.5;100.0
73316;BME280;61545;53.726;-0.444;2023-04-05T15:08:33;1012.7;;;9.4;100.0
73316;BME280;61545;53.726;-0.444;2023-04-05T15:13:33;1012.7;;;unknown;100.0
73316;BME280;61545;53.726;-0.444;2023-04-05T15:18:33;1012.6;;;9.2;100.0
73316;BME280;61545;53.726;-0.444;2023-04-05T15:23:33;1012.6;;;9.3;100.0
73316;BME280;61545;53.726;-0.444;2023-04-05T15:28:33;1012.6;;;9.2;100.0
73316;BME280;61545;53.726;-0.444;2023-04-05T15:33:33;1012.5;;;9.4;100.0
73316;BME280;61545;53.726;-0.444;2023-04-05T15:38:33;1012.4;;;9.3;100.0
73316;BME280;61545;53.726;-0.444;2023-04-05T15:43:33;1012.4;;;9.3;100.0
73316;BME280;61545;53.726;-0.444;2023-04-05T15:48:33;1012.3;;;9.2;100.0
73316;BME280;61545;53.726;-0.444;2023-04-05T15:53:33;1012.3;;;9.3;100.0
73316;BME280;61545;53.726;-0.444;2023-04-05T15:58:33;1012.2;;;9.3;100.0
73316;BME280;61545;53.726;-0.444;2023-04-05T16:03:33;1012.1;;;9.2;100.0
73316;BME280;61545;53.726;-0.444;2023-04-05T16:08:33;1012.1;;;9.3;100.0
73316;BME280;61545;53.726;-0.444;2023-04-05T16:13:33;1012.0;;;9.2;100.0
73316;BME280;61545;53.726;-0.444;2023-04-05T16:18:33;1012.0;;;9.2;100.0
73316;BME280;61545;53.726;-0.444;2023-04-05T16:23:33;1012.0;;;9.2;100.0
73316;BME280;61545;53.726;-0.444;2023-04-05T16:28:33;1012.0;;;9.2;100.0
73316;BME280;61545;53.726;-0.444;2023-04-05T16:33:33;1012.0;;;9.2;100.0
73316;BME280;61545;53.726;-0.444;2023-04-05T16:38:33;1011.9;;;9.2;100.0
73316;BME280;61545;53.726;-0.444;2023-04-05T16:43:33;1011.9;;;9.2;100.0
73316;BME280;61545;53.726;-0.444;2023-04-05T16:48:33;1011.9;;;9.2;100.0
73316;BME280;61545;53.726;-0.444;2023-04-05T16:53:33;1011.9;;;9.2;100.0
73316;BME280;61545;53.726;-0.444;2023-04-05T16:58:33;1011.9;;;9.2;100.0
73316;BME280;61545;53.726;-0.444;2023-04-05T17:03:33;1011.8;;;9.1;100.0
73316;BME280;61545;53.726;-0.444;2023-04-05T17:08:33;1011.8;;;9.1;100.0
73316;BME280;61545;53.726;-0.444;2023-04-05T17:13:33;1011.8;;;9.1;100.0
73316;BME280;61545;53.726;-0.444;2023-04-05T17:18:33;1011.8;;;9.0;100.0
73316;BME280;61545;53.726;-0.444;2023-04-05T17:23:33;1011.7;;;9.0;100.0
73316;BME280;61545;53.726;-0.444;2023-04-05T17:28:33;1011.7;;;8.9;100.0
73316;BME280;61545;53.726;-0.444;2023-04-05T17:33:33;1011.6;;;9.0;100.0
73316;BME280;61545;53.726;-0.444;2023-04-05T17:38:33;1011.6;;;9.0;100.0
73316;BME280;61545;53.726;-0.444;2023-04-05T17:43:33;1011.5;;;8.9;100.0
73316;BME280;61545;53.726;-0.444;2023-04-05T17:48:33;1011.5;;;8.8;100.0
73316;BME280;61545;53.726;-0.444;2023-04-05T17:53:33;1011.5;;;8.7;100.0
73316;BME280;61545;53.726;-0.444;2023-04-05T17:58:33;1011.5;;;8.8;100.0
73316;BME280;61545;53.726;-0.444;2023-04-05T18:03:33;1011.6;;;8.8;100.0
73316;BME280;61545;53.726;-0.444;2023-04-05T18:08:34;1011.5;;;8.8;100.0
73316;BME280;61545;53.726;-0.444;2023-04-05T18:13:33;1011.5;;;8.8;100.0
73316;BME280;61545;53.726;-0.444;2023-04-05T18:18:33;1011.5;;;8.9;100.0
73316;BME280;61545;53.726;-0.444;2023-04-05T18:23:33;1011.4;;;8.9;100.0
73316;BME280;61545;53.726;-0.444;2023-04-05T18:28:33;1011.4;;;8.7;100.0
73316;BME280;61545;53.726;-0.444;2023-04-05T18:33:33;1011.4;;;8.7;100.0
73316;BME280;61545;53.726;-0.444;2023-04-05T18:38:33;1011.3;;;8.7;100.0
73316;BME280;61545;53.726;-0.444;2023-04-05T18:43:33;1011.3;;;8.7;100.0
73316;BME280;61545;53.726;-0.444;2023-04-05T18:48:33;1011.3;;;8.7;100.0
73316;BME280;61545;53.726;-0.444;2023-04-05T18:53:33;1011.3;;;8.5;100.0
73316;BME280;61545;53.726;-0.444;2023-04-05T18:58:33;1011.3;;;8.6;100.0
73316;BME280;61545;53.726;-0.444;2023-04-05T19:03:33;1011.3;;;8.7;100.0
73316;BME280;61545;53.726;-0.444;2023-04-05T19:08:33;1011.3;;;8.7;100.0
73316;BME280;61545;53.726;-0.444;2023-04-05T19:13:33;1011.3;;;8.7;100.0
73316;BME280;61545;53.726;-0.444;2023-04-05T19:18:33;1011.3;;;8.6;100.0
73316;BME280;61545;53.726;-0.444;2023-04-05T19:23:33;1011.3;;;8.5;100.0
73316;BME280;61545;53.726;-0.444;2023-04-05T19:28:33;1011.3;;;8.5;100.0
73316;BME280;61545;53.726;-0.444;2023-04-05T19:33:33;1011.2;;;8.5;100.0
73316;BME280;61545;53.726;-0.444;2023-04-05T19:38:33;1011.2;;;8.5;100.0
73316;BME280;61545;53.726;-0.444;2023-04-05T19:43:33;1011.2;;;8.5;100.0
73316;BME280;61545;53.726;-0.444;2023-04-05T19:48:35;1011.1;;;8.5;100.0
73316;BME280;61545;53.726;-0.444;2023-04-05T19:53:38;1011.1;;;8.5;100.0
73316;BME280;61545;53.726;-0.444;2023-04-05T19:58:33;1011.0;;;8.5;100.0
73316;BME280;61545;53.726;-0.444;2023-04-05T20:03:34;1011.0;;;8.5;100.0
73316;BME280;61545;53.726;-0.444;2023-04-05T20:08:34;1010.9;;;8.5;100.0
73316;BME280;61545;53.726;-0.444;2023-04-05T20:13:38;1010.9;;;8.5;100.0
73316;BME280;61545;53.726;-0.444;2023-04-05T20:18:33;1010.9;;;8.5;100.0
73316;BME280;61545;53.726;-0.444;2023-04-05T20:23:34;1010.8;;;8.4;100.0
73316;BME280;61545;53.726;-0.444;2023-04-05T20:28:36;1010.8;;;8.5;100.0
73316;BME280;61545;53.726;-0.444;2023-04-05T20:33:38;1010.8;;;8.5;100.0
73316;BME280;61545;53.726;-0.444;2023-04-05T20:38:33;1010.7;;;8.5;100.0
73316;BME280;61545;53.726;-0.444;2023-04-05T20:43:33;1010.7;;;8.5;100.0
73316;BME280;61545;53.726;-0.444;2023-04-05T20:48:34;1010.6;;;8.5;100.0
73316;BME280;61545;53.726;-0.444;2023-04-05T20:53:33;1010.5;;;8.5;100.0
73316;BME280;61545;53.726;-0.444;2023-04-05T20:58:33;1010.5;;;8.5;100.0
73316;BME280;61545;53.726;-0.444;2023-04-05T21:03:34;1010.4;;;8.5;100.0
73316;BME280;61545;53.726;-0.444;2023-04-05T21:08:34;1010.3;;;8.5;100.0
73316;BME280;61545;53.726;-0.444;2023-04-05T21:13:33;1010.3;;;8.5;100.0
73316;BME280;61545;53.726;-0.444;2023-04-05T21:18:33;1010.2;;;8.4;100.0
73316;BME280;61545;53.726;-0.444;2023-04-05T21:23:33;1010.2;;;8.4;100.0
73316;BME280;61545;53.726;-0.444;2023-04-05T21:28:33;1010.2;;;8.4;100.0
73316;BME280;61545;53.726;-0.444;2023-04-05T21:33:33;1010.1;;;8.4;100.0
73316;BME280;61545;53.726;-0.444;2023-04-05T21:38:33;1010.1;;;8.4;100.0
73316;BME280;61545;53.726;-0.444;2023-04-05T21:43:33;1010.1;;;8.4;100.0
73316;BME280;61545;53.726;-0.444;2023-04-05T21:48:33;1010.0;;;8.4;100.0
73316;BME280;61545;53.726;-0.444;2023-04-05T21:53:33;1010.0;;;8.4;100.0
73316;BME280;61545;53.726;-0.444;2023-04-05T21:58:33;1009.9;;;8.4;100.0
73316;BME280;61545;53.726;-0.444;2023-04-05T22:03:33;1009.8;;;8.4;100.0
73316;BME280;61545;53.726;-0.444;2023-04-05T22:08:33;1009.8;;;8.4;100.0
73316;BME280;61545;53.726;-0.444;2023-04-05T22:13:33;1009.7;;;unknown;100.0
73316;BME280;61545;53.726;-0.444;2023-04-05T22:18:33;1009.7;;;8.4;100.0
73316;BME280;61545;53.726;-0.444;2023-04-05T22:23:33;1009.6;;;8.4;100.0
73316;BME280;61545;53.726;-0.444;2023-04-05T22:28:33;1009.5;;;8.4;100.0
73316;BME280;61545;53.726;-0.444;2023-04-05T22:33:33;1009.5;;;8.4;100.0
73316;BME280;61545;53.726;-0.444;2023-04-05T22:38:33;1009.5;;;8.4;100.0
73316;BME280;61545;53.726;-0.444;2023-04-05T22:43:33;1009.4;;;8.4;100.0
73316;BME280;61545;53.726;-0.444;2023-04-05T22:48:33;1009.4;;;8.4;100.0
73316;BME280;61545;53.726;-0.444;2023-04-05T22:53:33;1009.3;;;8.4;100.0
73316;BME280;61545;53.726;-0.444;2023-04-05T22:58:33;1009.3;;;8.4;100.0
73316;BME280;61545;53.726;-0.444;2023-04-05T23:03:33;1009.3;;;8.4;100.0
73316;BME280;61545;53.726;-0.444;2023-04-05T23:08:33;1009.2;;;8.4;100.0
73316;BME280;61545;53.726;-0.444;2023-04-05T23:13:33;1009.2;;;8.4;100.0
73316;BME280;61545;53.726;-0.444;2023-04-05T23:18:33;1009.1;;;8.4;100.0
73316;BME280;61545;53.726;-0.444;2023-04-05T23:23:33;1009.0;;;8.3;100.0
73316;BME280;61545;53.726;-0.444;2023-04-05T23:28:33;1008.9;;;8.3;100.0
73316;BME280;61545;53.726;-0.444;2023-04-05T23:33:33;1008.9;;;8.3;100.0
73316;BME280;61545;53.726;-0.444;2023-04-05T23:38:33;1008.9;;;8.4;100.0
73316;BME280;61545;53.726;-0.444;2023-04-05T23:43:33;1008.8;;;8.4;100.0
73316;BME280;61545;53.726;-0.444;2023-04-05T23:48:33;1008.8;;;8.4;100.0
73316;BME280;61545;53.726;-0.444;2023-04-05T23:53:33;1008.7;;;8.4;100.0
73316;BME280;61545;53.726;-0.444;2023-04-05T23:58:33;1008.6;;;8.4;100.0
